sensor_id;sensor_type;location;lat;lon;timestamp;pressure;altitude;pressure_sealevel;temperature;humidity
33454;BME280;39400;49.744;7.012;2022-09-13T00:02:19;95542.66;;;17.12;80.66
33454;BME280;39400;49.744;7.012;2022-09-13T00:04:46;95534.75;;;17.10;81.26
33454;BME280;39400;49.744;7.012;2022-09-13T00:07:14;95539.00;;;17.02;81.13
33454;BME280;39400;49.744;7.012;2022-09-13T00:09:41;95550.31;;;16.95;79.90
33454;BME280;39400;49.744;7.012;2022-09-13T00:12:08;95550.66;;;16.97;79.83
33454;BME280;39400;49.744;7.012;2022-09-13T00:14:35;95546.53;;;16.76;79.96
33454;BME280;39400;49.744;7.012;2022-09-13T00:17:02;95542.53;;;17.16;79.76
33454;BME280;39400;49.744;7.012;2022-09-13T00:19:30;95539.88;;;16.99;81.43
33454;BME280;39400;49.744;7.012;2022-09-13T00:21:57;95537.31;;;16.92;82.13
33454;BME280;39400;49.744;7.012;2022-09-13T00:24:24;95543.66;;;17.05;82.08
33454;BME280;39400;49.744;7.012;2022-09-13T00:26:51;95540.69;;;16.87;80.54
33454;BME280;39400;49.744;7.012;2022-09-13T00:29:18;95531.13;;;16.88;80.56
33454;BME280;39400;49.744;7.012;2022-09-13T00:31:46;95537.91;;;16.87;82.19
33454;BME280;39400;49.744;7.012;2022-09-13T00:34:13;95536.88;;;16.94;82.47
33454;BME280;39400;49.744;7.012;2022-09-13T00:36:40;95535.19;;;16.71;81.75
33454;BME280;39400;49.744;7.012;2022-09-13T00:39:11;95536.91;;;16.81;80.63
33454;BME280;39400;49.744;7.012;2022-09-13T00:41:38;95540.09;;;16.92;80.34
33454;BME280;39400;49.744;7.012;2022-09-13T00:47:14;95549.00;;;16.74;80.65
33454;BME280;39400;49.744;7.012;2022-09-13T00:49:47;95553.84;;;16.57;80.98
33454;BME280;39400;49.744;7.012;2022-09-13T00:52:19;95556.97;;;16.59;82.37
33454;BME280;39400;49.744;7.012;2022-09-13T00:54:54;95575.06;;;16.64;81.18
33454;BME280;39400;49.744;7.012;2022-09-13T00:57:23;95573.09;;;16.90;80.32
33454;BME280;39400;49.744;7.012;2022-09-13T01:00:12;95569.34;;;16.84;82.63
33454;BME280;39400;49.744;7.012;2022-09-13T01:02:44;95565.88;;;16.80;83.76
33454;BME280;39400;49.744;7.012;2022-09-13T01:05:14;95570.41;;;16.74;83.62
33454;BME280;39400;49.744;7.012;2022-09-13T01:07:43;95566.28;;;16.65;84.89
33454;BME280;39400;49.744;7.012;2022-09-13T01:10:10;95562.84;;;16.61;84.02
33454;BME280;39400;49.744;7.012;2022-09-13T01:15:22;95569.41;;;16.68;83.14
33454;BME280;39400;49.744;7.012;2022-09-13T01:17:51;95576.94;;;16.54;84.77
33454;BME280;39400;49.744;7.012;2022-09-13T01:20:22;95569.63;;;16.60;84.61
33454;BME280;39400;49.744;7.012;2022-09-13T01:37:13;95565.38;;;16.69;86.19
33454;BME280;39400;49.744;7.012;2022-09-13T01:40:14;95556.53;;;16.74;87.53
33454;BME280;39400;49.744;7.012;2022-09-13T01:47:57;95539.31;;;16.66;87.38
33454;BME280;39400;49.744;7.012;2022-09-13T01:50:41;95546.75;;;16.56;87.69
33454;BME280;39400;49.744;7.012;2022-09-13T01:55:59;95552.06;;;16.63;85.01
33454;BME280;39400;49.744;7.012;2022-09-13T01:58:56;95551.09;;;16.70;89.88
33454;BME280;39400;49.744;7.012;2022-09-13T02:01:35;95551.19;;;16.67;84.39
33454;BME280;39400;49.744;7.012;2022-09-13T02:04:09;95558.19;;;16.71;86.54
33454;BME280;39400;49.744;7.012;2022-09-13T02:06:46;95552.09;;;16.76;87.52
33454;BME280;39400;49.744;7.012;2022-09-13T02:09:23;95548.06;;;16.64;87.50
33454;BME280;39400;49.744;7.012;2022-09-13T02:12:06;95560.25;;;16.41;89.47
33454;BME280;39400;49.744;7.012;2022-09-13T02:14:37;95566.59;;;16.42;85.68
33454;BME280;39400;49.744;7.012;2022-09-13T02:17:07;95559.84;;;16.69;84.68
33454;BME280;39400;49.744;7.012;2022-09-13T02:19:40;95566.06;;;16.73;88.90
33454;BME280;39400;49.744;7.012;2022-09-13T02:22:12;95566.28;;;16.65;90.18
33454;BME280;39400;49.744;7.012;2022-09-13T02:24:43;95562.28;;;16.67;89.41
33454;BME280;39400;49.744;7.012;2022-09-13T02:27:15;95562.81;;;16.36;91.67
33454;BME280;39400;49.744;7.012;2022-09-13T02:29:47;95571.81;;;16.40;90.74
33454;BME280;39400;49.744;7.012;2022-09-13T02:32:36;95560.50;;;16.47;91.69
33454;BME280;39400;49.744;7.012;2022-09-13T02:35:07;95554.06;;;16.50;90.99
33454;BME280;39400;49.744;7.012;2022-09-13T02:37:39;95557.19;;;16.52;90.71
33454;BME280;39400;49.744;7.012;2022-09-13T02:40:11;95547.06;;;16.58;90.71
33454;BME280;39400;49.744;7.012;2022-09-13T02:42:53;95545.84;;;16.59;91.42
33454;BME280;39400;49.744;7.012;2022-09-13T02:45:30;95538.28;;;16.47;89.86
33454;BME280;39400;49.744;7.012;2022-09-13T02:47:59;95530.31;;;16.49;89.34
33454;BME280;39400;49.744;7.012;2022-09-13T02:50:53;95521.72;;;16.18;89.56
33454;BME280;39400;49.744;7.012;2022-09-13T02:53:49;95522.81;;;16.21;89.54
33454;BME280;39400;49.744;7.012;2022-09-13T02:56:20;95510.41;;;16.38;88.44
33454;BME280;39400;49.744;7.012;2022-09-13T02:59:16;95503.75;;;16.35;88.91
33454;BME280;39400;49.744;7.012;2022-09-13T03:01:58;95492.88;;;16.41;89.91
33454;BME280;39400;49.744;7.012;2022-09-13T03:04:28;95490.75;;;16.45;89.65
33454;BME280;39400;49.744;7.012;2022-09-13T03:06:55;95491.44;;;16.49;88.68
33454;BME280;39400;49.744;7.012;2022-09-13T03:09:22;95495.41;;;16.23;89.12
33454;BME280;39400;49.744;7.012;2022-09-13T03:23:11;95496.41;;;16.16;95.86
33454;BME280;39400;49.744;7.012;2022-09-13T03:28:20;95505.41;;;16.33;93.47
33454;BME280;39400;49.744;7.012;2022-09-13T03:31:18;95494.53;;;16.51;93.45
33454;BME280;39400;49.744;7.012;2022-09-13T03:34:08;95507.88;;;16.56;91.22
33454;BME280;39400;49.744;7.012;2022-09-13T03:42:03;95486.53;;;16.28;92.66
33454;BME280;39400;49.744;7.012;2022-09-13T03:44:33;95490.75;;;16.45;93.01
33454;BME280;39400;49.744;7.012;2022-09-13T03:47:04;95483.88;;;16.62;90.65
33454;BME280;39400;49.744;7.012;2022-09-13T03:49:32;95476.78;;;16.61;94.14
33454;BME280;39400;49.744;7.012;2022-09-13T03:52:03;95468.13;;;16.34;98.22
33454;BME280;39400;49.744;7.012;2022-09-13T03:54:31;95472.78;;;16.11;98.95
33454;BME280;39400;49.744;7.012;2022-09-13T03:57:06;95462.34;;;16.41;96.56
33454;BME280;39400;49.744;7.012;2022-09-13T03:59:35;95467.91;;;16.67;93.51
33454;BME280;39400;49.744;7.012;2022-09-13T04:02:05;95467.13;;;16.79;93.37
33454;BME280;39400;49.744;7.012;2022-09-13T04:04:34;95475.91;;;16.64;92.16
33454;BME280;39400;49.744;7.012;2022-09-13T04:07:01;95484.91;;;16.43;96.02
33454;BME280;39400;49.744;7.012;2022-09-13T04:09:30;95482.09;;;16.69;94.26
33454;BME280;39400;49.744;7.012;2022-09-13T04:11:57;95461.28;;;16.77;96.07
33454;BME280;39400;49.744;7.012;2022-09-13T04:14:24;95448.13;;;16.64;97.09
33454;BME280;39400;49.744;7.012;2022-09-13T04:16:55;95440.81;;;16.71;95.87
33454;BME280;39400;49.744;7.012;2022-09-13T04:19:24;95454.13;;;17.01;90.89
33454;BME280;39400;49.744;7.012;2022-09-13T04:21:53;95463.38;;;17.20;89.58
33454;BME280;39400;49.744;7.012;2022-09-13T04:24:26;95473.16;;;17.25;89.09
33454;BME280;39400;49.744;7.012;2022-09-13T04:26:54;95480.06;;;17.07;91.35
33454;BME280;39400;49.744;7.012;2022-09-13T04:29:23;95485.56;;;16.98;92.98
33454;BME280;39400;49.744;7.012;2022-09-13T04:31:52;95495.25;;;16.81;96.14
33454;BME280;39400;49.744;7.012;2022-09-13T04:34:20;95501.00;;;16.99;95.22
33454;BME280;39400;49.744;7.012;2022-09-13T04:36:51;95499.63;;;17.17;94.05
33454;BME280;39400;49.744;7.012;2022-09-13T04:39:19;95503.06;;;17.21;94.18
33454;BME280;39400;49.744;7.012;2022-09-13T04:41:47;95493.00;;;17.01;96.57
33454;BME280;39400;49.744;7.012;2022-09-13T04:44:15;95495.84;;;17.10;98.16
33454;BME280;39400;49.744;7.012;2022-09-13T04:46:45;95501.41;;;17.10;99.86
33454;BME280;39400;49.744;7.012;2022-09-13T04:49:15;95504.53;;;17.13;99.34
33454;BME280;39400;49.744;7.012;2022-09-13T04:51:42;95506.13;;;16.88;98.34
33454;BME280;39400;49.744;7.012;2022-09-13T04:54:10;95502.34;;;16.82;99.48
33454;BME280;39400;49.744;7.012;2022-09-13T04:56:42;95502.13;;;16.89;100.00
33454;BME280;39400;49.744;7.012;2022-09-13T04:59:10;95503.66;;;16.90;100.00
33454;BME280;39400;49.744;7.012;2022-09-13T05:01:38;95502.88;;;17.02;100.00
33454;BME280;39400;49.744;7.012;2022-09-13T05:04:06;95498.19;;;17.12;100.00
33454;BME280;39400;49.744;7.012;2022-09-13T05:06:34;95505.84;;;17.21;98.35
33454;BME280;39400;49.744;7.012;2022-09-13T05:09:02;95508.31;;;16.93;99.71
33454;BME280;39400;49.744;7.012;2022-09-13T05:11:30;95509.44;;;16.83;100.00
33454;BME280;39400;49.744;7.012;2022-09-13T05:13:58;95500.09;;;17.02;96.97
33454;BME280;39400;49.744;7.012;2022-09-13T05:16:30;95506.78;;;16.92;96.72
33454;BME280;39400;49.744;7.012;2022-09-13T05:18:59;95509.31;;;16.99;96.81
33454;BME280;39400;49.744;7.012;2022-09-13T05:21:26;95516.44;;;17.00;95.07
33454;BME280;39400;49.744;7.012;2022-09-13T05:23:54;95517.53;;;17.03;93.86
33454;BME280;39400;49.744;7.012;2022-09-13T05:26:23;95518.00;;;17.01;92.62
33454;BME280;39400;49.744;7.012;2022-09-13T05:28:51;95506.91;;;16.88;94.02
33454;BME280;39400;49.744;7.012;2022-09-13T05:31:21;95511.38;;;17.21;95.44
33454;BME280;39400;49.744;7.012;2022-09-13T05:33:57;95516.94;;;17.21;96.97
33454;BME280;39400;49.744;7.012;2022-09-13T05:36:25;95514.28;;;17.30;98.25
33454;BME280;39400;49.744;7.012;2022-09-13T05:38:53;95514.91;;;17.34;99.22
33454;BME280;39400;49.744;7.012;2022-09-13T05:41:40;95512.25;;;17.43;100.00
33454;BME280;39400;49.744;7.012;2022-09-13T05:44:08;95508.56;;;17.46;100.00
33454;BME280;39400;49.744;7.012;2022-09-13T05:46:40;95511.03;;;17.31;100.00
33454;BME280;39400;49.744;7.012;2022-09-13T05:49:08;95518.53;;;17.22;100.00
33454;BME280;39400;49.744;7.012;2022-09-13T05:51:35;95517.69;;;17.34;100.00
33454;BME280;39400;49.744;7.012;2022-09-13T05:54:02;95524.25;;;17.40;100.00
33454;BME280;39400;49.744;7.012;2022-09-13T05:56:29;95531.59;;;17.34;97.93
33454;BME280;39400;49.744;7.012;2022-09-13T05:58:57;95520.63;;;17.52;97.47
33454;BME280;39400;49.744;7.012;2022-09-13T06:01:26;95509.13;;;17.41;98.08
33454;BME280;39400;49.744;7.012;2022-09-13T06:03:57;95523.75;;;17.54;99.81
33454;BME280;39400;49.744;7.012;2022-09-13T06:06:25;95524.00;;;17.47;100.00
33454;BME280;39400;49.744;7.012;2022-09-13T06:08:53;95528.25;;;17.39;100.00
33454;BME280;39400;49.744;7.012;2022-09-13T06:11:21;95539.25;;;17.43;100.00
33454;BME280;39400;49.744;7.012;2022-09-13T06:13:49;95539.38;;;17.39;100.00
33454;BME280;39400;49.744;7.012;2022-09-13T06:16:16;95543.41;;;17.13;100.00
33454;BME280;39400;49.744;7.012;2022-09-13T06:18:44;95537.41;;;17.14;100.00
33454;BME280;39400;49.744;7.012;2022-09-13T06:21:17;95554.31;;;17.20;99.56
33454;BME280;39400;49.744;7.012;2022-09-13T06:23:49;95565.13;;;17.52;99.36
33454;BME280;39400;49.744;7.012;2022-09-13T06:26:22;95564.91;;;17.59;100.00
33454;BME280;39400;49.744;7.012;2022-09-13T06:28:51;95564.66;;;17.67;99.14
33454;BME280;39400;49.744;7.012;2022-09-13T06:31:21;95565.31;;;17.71;100.00
33454;BME280;39400;49.744;7.012;2022-09-13T06:33:54;95550.00;;;17.53;100.00
33454;BME280;39400;49.744;7.012;2022-09-13T06:36:23;95544.44;;;17.53;100.00
33454;BME280;39400;49.744;7.012;2022-09-13T06:38:50;95539.13;;;17.46;100.00
33454;BME280;39400;49.744;7.012;2022-09-13T06:41:19;95530.63;;;17.63;100.00
33454;BME280;39400;49.744;7.012;2022-09-13T06:43:58;95521.22;;;17.82;98.66
33454;BME280;39400;49.744;7.012;2022-09-13T06:46:27;95508.56;;;17.81;98.35
33454;BME280;39400;49.744;7.012;2022-09-13T06:48:58;95500.94;;;17.94;96.48
33454;BME280;39400;49.744;7.012;2022-09-13T06:51:26;95511.94;;;17.98;95.95
33454;BME280;39400;49.744;7.012;2022-09-13T06:53:55;95509.59;;;17.96;98.01
33454;BME280;39400;49.744;7.012;2022-09-13T06:56:25;95503.38;;;18.14;96.57
33454;BME280;39400;49.744;7.012;2022-09-13T06:59:00;95491.53;;;18.23;95.58
33454;BME280;39400;49.744;7.012;2022-09-13T07:01:31;95494.03;;;18.30;95.54
33454;BME280;39400;49.744;7.012;2022-09-13T07:04:17;95488.56;;;18.48;95.83
33454;BME280;39400;49.744;7.012;2022-09-13T07:06:47;95499.75;;;18.67;95.51
33454;BME280;39400;49.744;7.012;2022-09-13T07:09:16;95491.09;;;18.65;97.04
33454;BME280;39400;49.744;7.012;2022-09-13T07:11:44;95484.56;;;18.90;95.46
33454;BME280;39400;49.744;7.012;2022-09-13T07:14:21;95479.63;;;18.94;97.03
33454;BME280;39400;49.744;7.012;2022-09-13T07:16:49;95475.03;;;19.09;96.94
33454;BME280;39400;49.744;7.012;2022-09-13T07:19:20;95469.47;;;19.28;96.27
33454;BME280;39400;49.744;7.012;2022-09-13T07:21:49;95473.06;;;19.56;93.50
33454;BME280;39400;49.744;7.012;2022-09-13T07:24:17;95482.84;;;19.69;91.88
33454;BME280;39400;49.744;7.012;2022-09-13T07:26:45;95495.38;;;19.56;97.55
33454;BME280;39400;49.744;7.012;2022-09-13T07:29:14;95497.72;;;19.66;95.21
33454;BME280;39400;49.744;7.012;2022-09-13T07:31:44;95506.19;;;19.26;100.00
33454;BME280;39400;49.744;7.012;2022-09-13T07:34:14;95510.81;;;19.20;100.00
33454;BME280;39400;49.744;7.012;2022-09-13T07:36:42;95514.56;;;19.26;100.00
33454;BME280;39400;49.744;7.012;2022-09-13T07:39:09;95507.28;;;19.56;100.00
33454;BME280;39400;49.744;7.012;2022-09-13T07:41:41;95519.59;;;19.68;100.00
33454;BME280;39400;49.744;7.012;2022-09-13T07:44:09;95525.63;;;19.76;100.00
33454;BME280;39400;49.744;7.012;2022-09-13T07:46:38;95520.81;;;19.76;100.00
33454;BME280;39400;49.744;7.012;2022-09-13T07:49:13;95528.25;;;19.70;100.00
33454;BME280;39400;49.744;7.012;2022-09-13T07:51:43;95530.13;;;19.73;100.00
33454;BME280;39400;49.744;7.012;2022-09-13T07:54:13;95535.69;;;19.91;97.66
33454;BME280;39400;49.744;7.012;2022-09-13T07:56:40;95529.81;;;19.89;95.11
33454;BME280;39400;49.744;7.012;2022-09-13T07:59:15;95525.47;;;19.70;89.93
33454;BME280;39400;49.744;7.012;2022-09-13T08:01:47;95536.63;;;19.98;89.80
33454;BME280;39400;49.744;7.012;2022-09-13T08:04:17;95547.16;;;20.12;89.03
33454;BME280;39400;49.744;7.012;2022-09-13T08:06:45;95537.84;;;20.33;88.98
33454;BME280;39400;49.744;7.012;2022-09-13T08:09:13;95532.22;;;20.42;90.36
33454;BME280;39400;49.744;7.012;2022-09-13T08:11:47;95542.16;;;20.53;90.57
33454;BME280;39400;49.744;7.012;2022-09-13T08:14:16;95535.91;;;20.67;89.26
33454;BME280;39400;49.744;7.012;2022-09-13T08:16:44;95526.94;;;20.54;90.79
33454;BME280;39400;49.744;7.012;2022-09-13T08:19:13;95527.84;;;20.69;92.92
33454;BME280;39400;49.744;7.012;2022-09-13T08:21:42;95528.81;;;20.48;89.15
33454;BME280;39400;49.744;7.012;2022-09-13T08:24:15;95515.72;;;20.72;89.63
33454;BME280;39400;49.744;7.012;2022-09-13T08:26:43;95532.06;;;20.98;89.41
33454;BME280;39400;49.744;7.012;2022-09-13T08:29:11;95524.56;;;21.13;89.07
33454;BME280;39400;49.744;7.012;2022-09-13T08:31:39;95529.13;;;21.25;91.11
33454;BME280;39400;49.744;7.012;2022-09-13T08:34:09;95534.22;;;21.36;92.14
33454;BME280;39400;49.744;7.012;2022-09-13T08:36:37;95536.81;;;21.49;90.59
33454;BME280;39400;49.744;7.012;2022-09-13T08:39:06;95549.78;;;21.61;88.56
33454;BME280;39400;49.744;7.012;2022-09-13T08:44:20;95548.41;;;21.56;79.22
33454;BME280;39400;49.744;7.012;2022-09-13T08:47:07;95536.63;;;21.52;80.43
33454;BME280;39400;49.744;7.012;2022-09-13T08:49:44;95557.88;;;21.59;80.99
33454;BME280;39400;49.744;7.012;2022-09-13T08:52:38;95566.41;;;21.31;77.01
33454;BME280;39400;49.744;7.012;2022-09-13T08:55:29;95570.53;;;21.12;91.31
33454;BME280;39400;49.744;7.012;2022-09-13T08:58:25;95570.88;;;21.05;93.37
33454;BME280;39400;49.744;7.012;2022-09-13T09:01:04;95568.72;;;21.00;95.34
33454;BME280;39400;49.744;7.012;2022-09-13T09:03:45;95580.41;;;20.89;96.81
33454;BME280;39400;49.744;7.012;2022-09-13T09:06:15;95570.94;;;20.86;97.08
33454;BME280;39400;49.744;7.012;2022-09-13T09:08:50;95567.25;;;20.71;96.49
33454;BME280;39400;49.744;7.012;2022-09-13T09:14:07;95557.91;;;20.83;95.37
33454;BME280;39400;49.744;7.012;2022-09-13T09:16:52;95570.63;;;20.84;94.99
33454;BME280;39400;49.744;7.012;2022-09-13T09:19:29;95572.16;;;20.95;93.95
33454;BME280;39400;49.744;7.012;2022-09-13T09:22:08;95576.44;;;21.05;93.42
33454;BME280;39400;49.744;7.012;2022-09-13T09:24:39;95588.00;;;20.88;93.22
33454;BME280;39400;49.744;7.012;2022-09-13T09:27:14;95587.59;;;20.72;92.99
33454;BME280;39400;49.744;7.012;2022-09-13T09:29:42;95589.00;;;20.67;94.23
33454;BME280;39400;49.744;7.012;2022-09-13T09:37:36;95608.09;;;20.59;95.17
33454;BME280;39400;49.744;7.012;2022-09-13T09:40:05;95601.44;;;20.48;96.08
33454;BME280;39400;49.744;7.012;2022-09-13T09:42:47;95611.03;;;20.47;98.90
33454;BME280;39400;49.744;7.012;2022-09-13T09:45:30;95623.78;;;20.38;99.77
33454;BME280;39400;49.744;7.012;2022-09-13T09:48:04;95620.53;;;20.58;98.97
33454;BME280;39400;49.744;7.012;2022-09-13T09:50:36;95605.84;;;20.91;97.47
33454;BME280;39400;49.744;7.012;2022-09-13T09:55:44;95622.50;;;20.85;95.57
33454;BME280;39400;49.744;7.012;2022-09-13T09:58:13;95630.38;;;20.96;97.44
33454;BME280;39400;49.744;7.012;2022-09-13T10:00:52;95629.63;;;20.96;100.00
33454;BME280;39400;49.744;7.012;2022-09-13T10:03:28;95631.66;;;20.77;100.00
33454;BME280;39400;49.744;7.012;2022-09-13T10:06:24;95617.09;;;20.63;100.00
33454;BME280;39400;49.744;7.012;2022-09-13T10:09:20;95586.34;;;20.82;100.00
33454;BME280;39400;49.744;7.012;2022-09-13T10:11:49;95574.84;;;20.71;100.00
33454;BME280;39400;49.744;7.012;2022-09-13T10:14:41;95585.00;;;20.40;100.00
33454;BME280;39400;49.744;7.012;2022-09-13T10:19:57;95569.00;;;20.59;100.00
33454;BME280;39400;49.744;7.012;2022-09-13T10:22:27;95580.00;;;20.63;100.00
33454;BME280;39400;49.744;7.012;2022-09-13T10:24:54;95587.13;;;20.73;100.00
33454;BME280;39400;49.744;7.012;2022-09-13T10:27:35;95578.75;;;20.64;100.00
33454;BME280;39400;49.744;7.012;2022-09-13T10:30:04;95584.66;;;20.66;100.00
33454;BME280;39400;49.744;7.012;2022-09-13T10:32:32;95575.97;;;20.64;100.00
33454;BME280;39400;49.744;7.012;2022-09-13T10:35:14;95553.97;;;20.38;100.00
33454;BME280;39400;49.744;7.012;2022-09-13T10:37:43;95563.41;;;20.59;100.00
33454;BME280;39400;49.744;7.012;2022-09-13T10:40:28;95557.53;;;21.00;100.00
33454;BME280;39400;49.744;7.012;2022-09-13T10:42:57;95559.34;;;21.12;100.00
33454;BME280;39400;49.744;7.012;2022-09-13T10:45:25;95546.19;;;21.03;100.00
33454;BME280;39400;49.744;7.012;2022-09-13T10:47:57;95544.38;;;21.24;100.00
33454;BME280;39400;49.744;7.012;2022-09-13T10:50:29;95538.53;;;21.46;100.00
33454;BME280;39400;49.744;7.012;2022-09-13T10:53:02;95534.19;;;21.69;100.00
33454;BME280;39400;49.744;7.012;2022-09-13T10:55:32;95531.28;;;21.78;100.00
33454;BME280;39400;49.744;7.012;2022-09-13T11:01:07;95520.38;;;22.04;100.00
33454;BME280;39400;49.744;7.012;2022-09-13T11:11:57;95527.19;;;22.27;100.00
33454;BME280;39400;49.744;7.012;2022-09-13T11:20:12;95511.16;;;22.72;100.00
33454;BME280;39400;49.744;7.012;2022-09-13T11:22:51;95511.31;;;22.98;100.00
33454;BME280;39400;49.744;7.012;2022-09-13T11:42:14;95471.72;;;23.46;94.99
33454;BME280;39400;49.744;7.012;2022-09-13T11:47:54;95497.69;;;23.82;94.66
33454;BME280;39400;49.744;7.012;2022-09-13T11:55:45;95490.75;;;23.78;100.00
33454;BME280;39400;49.744;7.012;2022-09-13T11:58:19;95497.44;;;23.24;99.51
33454;BME280;39400;49.744;7.012;2022-09-13T12:00:56;95494.06;;;23.41;100.00
33454;BME280;39400;49.744;7.012;2022-09-13T12:03:26;95500.41;;;23.56;99.14
33454;BME280;39400;49.744;7.012;2022-09-13T12:06:05;95492.25;;;23.38;100.00
33454;BME280;39400;49.744;7.012;2022-09-13T12:08:34;95490.59;;;23.66;95.43
33454;BME280;39400;49.744;7.012;2022-09-13T12:11:10;95483.63;;;24.03;93.86
33454;BME280;39400;49.744;7.012;2022-09-13T12:13:57;95480.19;;;23.93;89.88
33454;BME280;39400;49.744;7.012;2022-09-13T12:16:45;95475.25;;;24.08;92.95
33454;BME280;39400;49.744;7.012;2022-09-13T12:19:27;95478.66;;;23.71;87.44
33454;BME280;39400;49.744;7.012;2022-09-13T12:21:58;95465.19;;;23.76;86.78
33454;BME280;39400;49.744;7.012;2022-09-13T12:24:33;95462.22;;;23.85;85.60
33454;BME280;39400;49.744;7.012;2022-09-13T12:30:20;95462.16;;;24.26;88.21
33454;BME280;39400;49.744;7.012;2022-09-13T12:32:48;95465.06;;;24.37;85.70
33454;BME280;39400;49.744;7.012;2022-09-13T12:35:23;95466.31;;;24.36;82.86
33454;BME280;39400;49.744;7.012;2022-09-13T12:41:07;95452.53;;;24.38;84.38
33454;BME280;39400;49.744;7.012;2022-09-13T12:44:03;95448.81;;;24.20;88.13
33454;BME280;39400;49.744;7.012;2022-09-13T12:49:38;95446.06;;;24.26;86.21
33454;BME280;39400;49.744;7.012;2022-09-13T12:52:33;95443.41;;;24.17;84.69
33454;BME280;39400;49.744;7.012;2022-09-13T12:55:22;95446.25;;;23.70;84.77
33454;BME280;39400;49.744;7.012;2022-09-13T13:01:20;95450.88;;;23.53;85.91
33454;BME280;39400;49.744;7.012;2022-09-13T13:03:52;95450.72;;;23.62;86.15
33454;BME280;39400;49.744;7.012;2022-09-13T13:06:34;95446.75;;;23.48;86.08
33454;BME280;39400;49.744;7.012;2022-09-13T13:11:55;95442.78;;;23.61;85.61
33454;BME280;39400;49.744;7.012;2022-09-13T13:14:27;95449.16;;;23.61;81.54
33454;BME280;39400;49.744;7.012;2022-09-13T13:33:50;95432.63;;;23.84;76.62
33454;BME280;39400;49.744;7.012;2022-09-13T13:36:22;95427.28;;;23.65;73.97
33454;BME280;39400;49.744;7.012;2022-09-13T13:38:51;95426.47;;;23.80;75.82
33454;BME280;39400;49.744;7.012;2022-09-13T13:43:59;95417.75;;;23.37;77.17
33454;BME280;39400;49.744;7.012;2022-09-13T13:46:30;95407.31;;;23.37;75.50
33454;BME280;39400;49.744;7.012;2022-09-13T14:03:07;95394.75;;;23.73;76.10
33454;BME280;39400;49.744;7.012;2022-09-13T14:06:04;95401.53;;;23.67;73.53
33454;BME280;39400;49.744;7.012;2022-09-13T14:08:37;95389.13;;;23.73;75.31
33454;BME280;39400;49.744;7.012;2022-09-13T14:14:35;95401.53;;;23.67;72.90
33454;BME280;39400;49.744;7.012;2022-09-13T14:20:13;95386.00;;;23.45;72.97
33454;BME280;39400;49.744;7.012;2022-09-13T14:22:42;95384.63;;;23.61;71.94
33454;BME280;39400;49.744;7.012;2022-09-13T14:25:21;95372.28;;;23.53;72.06
33454;BME280;39400;49.744;7.012;2022-09-13T14:27:55;95381.81;;;23.61;73.49
33454;BME280;39400;49.744;7.012;2022-09-13T14:30:33;95378.44;;;23.78;72.16
33454;BME280;39400;49.744;7.012;2022-09-13T14:33:01;95377.69;;;23.77;71.70
33454;BME280;39400;49.744;7.012;2022-09-13T14:35:34;95377.09;;;23.99;71.38
33454;BME280;39400;49.744;7.012;2022-09-13T14:38:25;95374.31;;;24.31;70.73
33454;BME280;39400;49.744;7.012;2022-09-13T14:41:00;95376.13;;;24.34;70.17
33454;BME280;39400;49.744;7.012;2022-09-13T14:43:28;95373.41;;;24.45;72.15
33454;BME280;39400;49.744;7.012;2022-09-13T14:48:45;95371.47;;;25.59;66.45
33454;BME280;39400;49.744;7.012;2022-09-13T14:51:23;95373.91;;;26.23;62.92
33454;BME280;39400;49.744;7.012;2022-09-13T14:54:17;95359.31;;;26.19;62.32
33454;BME280;39400;49.744;7.012;2022-09-13T14:56:50;95361.56;;;25.81;64.65
33454;BME280;39400;49.744;7.012;2022-09-13T14:59:41;95367.13;;;25.58;64.33
33454;BME280;39400;49.744;7.012;2022-09-13T15:02:18;95363.16;;;25.28;67.06
33454;BME280;39400;49.744;7.012;2022-09-13T15:04:50;95376.97;;;25.20;64.99
33454;BME280;39400;49.744;7.012;2022-09-13T15:07:33;95378.84;;;24.97;65.28
33454;BME280;39400;49.744;7.012;2022-09-13T15:10:19;95371.59;;;24.79;65.91
33454;BME280;39400;49.744;7.012;2022-09-13T15:15:33;95371.84;;;24.76;67.14
33454;BME280;39400;49.744;7.012;2022-09-13T15:18:04;95375.13;;;24.68;68.53
33454;BME280;39400;49.744;7.012;2022-09-13T15:20:54;95370.44;;;24.54;68.35
33454;BME280;39400;49.744;7.012;2022-09-13T15:23:26;95364.03;;;24.54;69.59
33454;BME280;39400;49.744;7.012;2022-09-13T15:28:33;95370.78;;;24.36;70.60
33454;BME280;39400;49.744;7.012;2022-09-13T15:31:01;95371.31;;;24.08;69.26
33454;BME280;39400;49.744;7.012;2022-09-13T15:33:30;95362.25;;;23.93;69.32
33454;BME280;39400;49.744;7.012;2022-09-13T15:39:00;95371.66;;;23.90;70.81
33454;BME280;39400;49.744;7.012;2022-09-13T15:44:03;95371.44;;;23.47;74.43
33454;BME280;39400;49.744;7.012;2022-09-13T15:46:31;95372.19;;;23.21;81.12
33454;BME280;39400;49.744;7.012;2022-09-13T15:49:01;95371.91;;;22.99;83.29
33454;BME280;39400;49.744;7.012;2022-09-13T15:51:30;95377.34;;;22.88;86.27
33454;BME280;39400;49.744;7.012;2022-09-13T15:54:10;95369.63;;;22.83;87.90
33454;BME280;39400;49.744;7.012;2022-09-13T15:56:41;95373.53;;;22.70;89.47
33454;BME280;39400;49.744;7.012;2022-09-13T15:59:19;95365.78;;;22.65;95.24
33454;BME280;39400;49.744;7.012;2022-09-13T16:01:48;95363.72;;;22.81;96.09
33454;BME280;39400;49.744;7.012;2022-09-13T16:04:17;95361.88;;;23.13;94.46
33454;BME280;39400;49.744;7.012;2022-09-13T16:06:44;95361.09;;;23.12;95.80
33454;BME280;39400;49.744;7.012;2022-09-13T16:09:23;95357.31;;;23.15;95.82
33454;BME280;39400;49.744;7.012;2022-09-13T16:11:50;95358.63;;;23.20;94.68
33454;BME280;39400;49.744;7.012;2022-09-13T16:14:20;95347.38;;;23.14;94.98
33454;BME280;39400;49.744;7.012;2022-09-13T16:16:48;95348.81;;;23.10;95.77
33454;BME280;39400;49.744;7.012;2022-09-13T16:19:18;95350.38;;;23.11;97.09
33454;BME280;39400;49.744;7.012;2022-09-13T16:21:47;95352.56;;;23.01;98.49
33454;BME280;39400;49.744;7.012;2022-09-13T16:24:15;95352.81;;;23.03;97.89